Time;durP1;ratioP1;P1;durP2;ratioP2;P2;SDS_P1;SDS_P2;PMS_P1;PMS_P2;Temp;Humidity;BMP_temperature;BMP_pressure;BME280_temperature;BME280_humidity;BME280_pressure;Samples;Min_cycle;Max_cycle;Signal;HPM_P1;HPM_P2
2023/12/19 00:02:25;;;;;;;;;;;;;;;22.12;24.27;98905.50;5016649;28;922;-74
2023/12/19 00:04:50;;;;;;;;;;;;;;;21.94;24.30;98899.28;5016981;28;933;-74
2023/12/19 00:07:16;;;;;;;;;;;;;;;21.89;24.46;98905.41;5000556;28;1078;-73
2023/12/19 00:09:42;;;;;;;;;;;;;;;21.70;24.74;98902.00;5016806;28;962;-74
2023/12/19 00:12:08;;;;;;;;;;;;;;;21.32;25.10;98902.06;5033455;28;969;-74
2023/12/19 00:14:33;;;;;;;;;;;;;;;21.27;25.03;98908.13;5037452;28;1212;-73
2023/12/19 00:16:59;;;;;;;;;;;;;;;21.32;25.13;98904.88;5038483;28;1971;-73
2023/12/19 00:19:24;;;;;;;;;;;;;;;21.75;24.46;98893.03;5020780;28;942;-73
2023/12/19 00:21:50;;;;;;;;;;;;;;;21.69;24.66;98894.72;5037478;28;991;-74
2023/12/19 00:24:15;;;;;;;;;;;;;;;21.80;24.31;98891.75;5037269;28;1252;-74
2023/12/19 00:26:41;;;;;;;;;;;;;;;21.72;24.63;98887.44;5019615;28;1689;-73
2023/12/19 00:29:06;;;;;;;;;;;;;;;21.77;24.62;98890.59;5037194;28;1043;-74
2023/12/19 00:31:32;;;;;;;;;;;;;;;21.84;24.29;98881.19;5019769;28;957;-73
2023/12/19 00:33:57;;;;;;;;;;;;;;;21.91;24.21;98871.78;5036940;28;888;-74
2023/12/19 00:36:23;;;;;;;;;;;;;;;21.89;24.25;98879.91;5036061;28;1903;-74
2023/12/19 00:38:49;;;;;;;;;;;;;;;21.84;24.53;98881.97;5038381;28;938;-73
2023/12/19 00:41:17;;;;;;;;;;;;;;;21.74;24.33;98885.75;5020500;28;1313;-74
2023/12/19 00:43:43;;;;;;;;;;;;;;;21.75;24.45;98887.38;5036920;28;956;-73
2023/12/19 00:46:09;;;;;;;;;;;;;;;21.84;24.33;98884.03;5038102;28;1539;-73
2023/12/19 00:48:34;;;;;;;;;;;;;;;21.98;24.08;98878.16;5036506;28;978;-74
2023/12/19 00:51:00;;;;;;;;;;;;;;;22.11;24.08;98881.22;5036814;28;842;-74
2023/12/19 00:53:26;;;;;;;;;;;;;;;21.75;24.34;98887.38;5019937;28;1428;-73
2023/12/19 00:55:51;;;;;;;;;;;;;;;21.65;24.45;98881.84;5036662;28;1974;-74
2023/12/19 00:58:17;;;;;;;;;;;;;;;21.52;24.84;98884.44;5037816;28;1001;-74
2023/12/19 01:00:42;;;;;;;;;;;;;;;21.72;24.71;98885.41;5036629;28;1023;-73
2023/12/19 01:03:08;;;;;;;;;;;;;;;21.89;24.44;98896.91;5015196;28;1052;-74
2023/12/19 01:05:33;;;;;;;;;;;;;;;21.59;24.77;98895.66;5015751;28;1250;-74
2023/12/19 01:07:59;;;;;;;;;;;;;;;21.69;24.52;98894.72;4999227;28;1092;-74
2023/12/19 01:10:24;;;;;;;;;;;;;;;21.81;24.47;98885.69;5015750;28;1085;-74
2023/12/19 01:12:50;;;;;;;;;;;;;;;21.67;24.53;98890.72;4999183;28;1383;-73
2023/12/19 01:15:16;;;;;;;;;;;;;;;21.94;24.43;98888.75;4999058;28;982;-74
2023/12/19 01:17:42;;;;;;;;;;;;;;;21.76;24.51;98877.66;4998861;28;1963;-74
2023/12/19 01:20:09;;;;;;;;;;;;;;;21.97;24.19;98887.91;4998781;28;993;-74
2023/12/19 01:22:34;;;;;;;;;;;;;;;21.95;24.24;98883.88;5015451;28;1069;-74
2023/12/19 01:25:00;;;;;;;;;;;;;;;22.07;23.88;98874.78;4998805;28;1036;-74
2023/12/19 01:27:25;;;;;;;;;;;;;;;22.13;23.84;98883.66;5015288;28;976;-73
2023/12/19 01:29:51;;;;;;;;;;;;;;;21.99;23.98;98881.78;4998946;28;986;-73
2023/12/19 01:32:16;;;;;;;;;;;;;;;21.56;24.76;98885.22;5015224;28;1130;-73
2023/12/19 01:34:42;;;;;;;;;;;;;;;21.53;24.48;98888.88;5014024;28;905;-74
2023/12/19 01:37:07;;;;;;;;;;;;;;;21.64;24.59;98881.03;5036096;28;1898;-74
2023/12/19 01:39:33;;;;;;;;;;;;;;;21.88;24.46;98878.31;5035840;28;931;-73
2023/12/19 01:41:59;;;;;;;;;;;;;;;21.67;24.50;98868.06;5036953;28;921;-73
2023/12/19 01:44:25;;;;;;;;;;;;;;;21.73;24.53;98878.50;5035031;28;957;-74
2023/12/19 01:46:51;;;;;;;;;;;;;;;21.95;24.37;98883.88;5035758;28;1180;-73
2023/12/19 01:49:16;;;;;;;;;;;;;;;21.97;24.03;98870.09;5037183;28;833;-73
2023/12/19 01:51:42;;;;;;;;;;;;;;;21.88;24.13;98872.66;5035822;28;916;-73
2023/12/19 01:54:07;;;;;;;;;;;;;;;21.66;24.52;98872.94;5035752;28;1429;-74
2023/12/19 01:56:33;;;;;;;;;;;;;;;21.95;24.25;98878.19;5035606;28;1971;-73
2023/12/19 01:58:59;;;;;;;;;;;;;;;21.56;24.32;98879.53;5018989;28;1095;-73
2023/12/19 02:01:24;;;;;;;;;;;;;;;21.59;24.61;98873.81;5035515;28;946;-73
2023/12/19 02:03:50;;;;;;;;;;;;;;;21.49;24.92;98871.13;5035404;28;885;-73
2023/12/19 02:06:16;;;;;;;;;;;;;;;21.69;24.48;98872.06;5034678;28;984;-73
2023/12/19 02:08:42;;;;;;;;;;;;;;;21.82;24.06;98884.44;5019094;28;1350;-74
2023/12/19 02:11:07;;;;;;;;;;;;;;;22.01;24.10;98876.50;5036629;28;950;-74
2023/12/19 02:13:33;;;;;;;;;;;;;;;22.03;24.08;98874.06;5036624;28;1037;-74
2023/12/19 02:15:58;;;;;;;;;;;;;;;21.92;24.09;98879.88;5034952;28;1902;-73
2023/12/19 02:18:24;;;;;;;;;;;;;;;21.57;24.42;98881.13;5036742;28;882;-74
2023/12/19 02:20:50;;;;;;;;;;;;;;;21.78;24.41;98875.19;5035779;28;960;-74
2023/12/19 02:23:15;;;;;;;;;;;;;;;21.83;24.34;98882.41;5035351;28;980;-74
2023/12/19 02:25:41;;;;;;;;;;;;;;;21.89;23.98;98877.06;5036388;28;926;-73
2023/12/19 02:28:06;;;;;;;;;;;;;;;21.99;23.88;98878.97;5034835;28;954;-73
2023/12/19 02:30:34;;;;;;;;;;;;;;;21.89;24.10;98868.56;5034818;28;1130;-73
2023/12/19 02:33:00;;;;;;;;;;;;;;;21.65;24.29;98876.97;5036406;28;1044;-73
2023/12/19 02:35:26;;;;;;;;;;;;;;;21.32;24.78;98875.78;5035203;28;933;-73
2023/12/19 02:37:51;;;;;;;;;;;;;;;21.53;24.61;98878.34;5035214;28;1910;-73
2023/12/19 02:40:17;;;;;;;;;;;;;;;21.81;24.32;98868.69;5034753;28;1247;-74
2023/12/19 02:42:43;;;;;;;;;;;;;;;21.81;24.07;98867.84;5035124;28;1127;-74
2023/12/19 02:45:09;;;;;;;;;;;;;;;21.84;23.96;98870.66;5036337;28;1036;-73
2023/12/19 02:47:34;;;;;;;;;;;;;;;21.74;24.24;98863.09;5035001;28;1352;-73
2023/12/19 02:50:00;;;;;;;;;;;;;;;21.71;24.50;98863.13;5034999;28;1552;-73
2023/12/19 02:52:26;;;;;;;;;;;;;;;22.06;23.85;98861.84;5034996;28;1335;-74
2023/12/19 02:54:51;;;;;;;;;;;;;;;21.73;24.18;98864.34;5034869;28;1135;-73
2023/12/19 02:57:17;;;;;;;;;;;;;;;21.24;25.05;98869.38;5034682;28;1906;-73
2023/12/19 02:59:42;;;;;;;;;;;;;;;21.61;24.27;98870.56;5034761;28;1162;-74
2023/12/19 03:02:08;;;;;;;;;;;;;;;21.69;24.21;98871.28;5034862;28;878;-73
2023/12/19 03:04:33;;;;;;;;;;;;;;;21.64;24.29;98874.56;5034838;28;852;-74
2023/12/19 03:06:59;;;;;;;;;;;;;;;21.89;24.27;98874.25;5035804;28;900;-74
2023/12/19 03:09:24;;;;;;;;;;;;;;;21.84;24.03;98876.31;5034583;28;1073;-73
2023/12/19 03:12:00;;;;;;;;;;;;;;;21.98;23.98;98871.69;5034872;28;1161;-74
2023/12/19 03:14:25;;;;;;;;;;;;;;;21.87;24.14;98865.38;5034410;28;951;-73
2023/12/19 03:16:51;;;;;;;;;;;;;;;21.91;23.91;98860.44;5020269;28;1975;-74
2023/12/19 03:19:16;;;;;;;;;;;;;;;21.83;24.43;98860.56;5040169;28;927;-73
2023/12/19 03:21:42;;;;;;;;;;;;;;;21.93;24.08;98870.13;5039414;28;916;-73
2023/12/19 03:24:07;;;;;;;;;;;;;;;21.98;23.77;98871.69;5039376;28;863;-74
2023/12/19 03:26:33;;;;;;;;;;;;;;;21.94;23.99;98870.94;5038376;28;942;-73
2023/12/19 03:28:58;;;;;;;;;;;;;;;22.09;23.59;98875.16;5039235;28;920;-73
2023/12/19 03:31:24;;;;;;;;;;;;;;;22.05;23.95;98866.72;5038484;28;955;-73
2023/12/19 03:33:50;;;;;;;;;;;;;;;21.76;24.22;98855.00;5038179;28;944;-74
2023/12/19 03:36:15;;;;;;;;;;;;;;;21.91;24.01;98854.78;5038405;28;1898;-74
2023/12/19 03:38:41;;;;;;;;;;;;;;;21.62;24.53;98852.34;5037978;28;917;-73
2023/12/19 03:41:07;;;;;;;;;;;;;;;21.62;24.19;98848.72;5017283;28;1132;-74
2023/12/19 03:43:34;;;;;;;;;;;;;;;21.84;24.05;98839.50;5017315;28;1066;-74
2023/12/19 03:46:02;;;;;;;;;;;;;;;21.87;24.20;98837.03;5017158;28;1283;-73
2023/12/19 03:48:28;;;;;;;;;;;;;;;21.99;23.77;98839.28;5017012;28;1100;-74
2023/12/19 03:50:54;;;;;;;;;;;;;;;21.82;23.87;98836.28;5016858;28;947;-73
2023/12/19 03:53:20;;;;;;;;;;;;;;;21.98;23.96;98837.69;5016782;28;1046;-73
2023/12/19 03:55:45;;;;;;;;;;;;;;;21.74;24.26;98831.94;5017206;28;955;-74
2023/12/19 03:58:11;;;;;;;;;;;;;;;21.81;24.03;98834.69;5016554;28;1918;-74
2023/12/19 04:00:37;;;;;;;;;;;;;;;21.88;23.84;98830.94;5000766;28;946;-74
2023/12/19 04:03:02;;;;;;;;;;;;;;;21.97;23.84;98833.25;5016635;28;1034;-73
2023/12/19 04:05:28;;;;;;;;;;;;;;;21.88;23.90;98838.66;4977448;28;987;-73
2023/12/19 04:07:53;;;;;;;;;;;;;;;21.78;24.22;98835.53;4961669;28;979;-74
2023/12/19 04:10:19;;;;;;;;;;;;;;;21.87;23.81;98837.03;4980472;28;1032;-73
2023/12/19 04:12:44;;;;;;;;;;;;;;;21.74;24.13;98846.09;4995499;28;1061;-73
2023/12/19 04:15:10;;;;;;;;;;;;;;;21.61;24.03;98847.91;5000133;28;1143;-74
2023/12/19 04:17:35;;;;;;;;;;;;;;;21.53;24.33;98843.56;5000090;28;1906;-74
2023/12/19 04:20:03;;;;;;;;;;;;;;;21.93;23.83;98846.66;5000015;28;1127;-73
2023/12/19 04:22:30;;;;;;;;;;;;;;;21.91;24.04;98844.25;5016305;28;993;-74
2023/12/19 04:24:55;;;;;;;;;;;;;;;21.81;24.12;98848.84;4999795;28;991;-73
2023/12/19 04:27:21;;;;;;;;;;;;;;;21.90;24.11;98853.19;4999496;28;907;-73
2023/12/19 04:29:46;;;;;;;;;;;;;;;21.71;24.15;98851.81;4999553;28;997;-74
2023/12/19 04:32:13;;;;;;;;;;;;;;;21.67;24.42;98851.88;4999634;28;1015;-74
2023/12/19 04:34:38;;;;;;;;;;;;;;;21.88;23.80;98855.66;4999949;28;908;-74
2023/12/19 04:37:04;;;;;;;;;;;;;;;21.70;24.22;98851.00;4999557;28;1971;-73
2023/12/19 04:39:29;;;;;;;;;;;;;;;21.73;24.22;98860.69;5016316;28;958;-74
2023/12/19 04:41:55;;;;;;;;;;;;;;;21.53;24.58;98872.69;5020066;28;1126;-74
2023/12/19 04:44:21;;;;;;;;;;;;;;;21.25;24.74;98864.50;5053326;28;1785;-73
2023/12/19 04:46:47;;;;;;;;;;;;;;;21.57;24.46;98869.81;5039961;28;1183;-73
2023/12/19 04:49:12;;;;;;;;;;;;;;;21.88;23.90;98866.97;5057658;28;984;-73
2023/12/19 04:51:38;;;;;;;;;;;;;;;21.83;24.07;98873.91;5040520;28;898;-73
2023/12/19 04:54:05;;;;;;;;;;;;;;;21.91;24.11;98877.44;5057752;28;1000;-73
2023/12/19 04:56:31;;;;;;;;;;;;;;;21.84;23.95;98893.31;5023600;28;1898;-74
2023/12/19 04:58:57;;;;;;;;;;;;;;;21.92;23.92;98879.06;5039812;28;1456;-74
2023/12/19 05:01:23;;;;;;;;;;;;;;;22.03;23.73;98879.72;5023497;28;999;-73
2023/12/19 05:03:48;;;;;;;;;;;;;;;21.85;24.20;98875.09;5039653;28;1613;-74
2023/12/19 05:06:17;;;;;;;;;;;;;;;21.87;24.09;98882.38;5039768;28;990;-74
2023/12/19 05:08:42;;;;;;;;;;;;;;;21.92;23.82;98884.75;5038448;28;1388;-74
2023/12/19 05:11:08;;;;;;;;;;;;;;;21.45;24.57;98881.69;5023388;28;1474;-73
2023/12/19 05:13:33;;;;;;;;;;;;;;;21.44;24.28;98883.72;5039875;28;1241;-73
2023/12/19 05:16:08;;;;;;;;;;;;;;;21.52;24.22;98876.75;5039414;28;1970;-73
2023/12/19 05:18:35;;;;;;;;;;;;;;;21.63;24.51;98870.94;5023219;28;990;-73
2023/12/19 05:21:01;;;;;;;;;;;;;;;21.97;23.72;98875.75;4998642;28;1376;-74
2023/12/19 05:23:26;;;;;;;;;;;;;;;21.65;24.42;98871.31;4997985;28;1422;-74
2023/12/19 05:25:52;;;;;;;;;;;;;;;21.79;24.06;98876.78;4998227;28;1483;-74
2023/12/19 05:28:17;;;;;;;;;;;;;;;21.90;23.98;98879.47;4998067;28;1349;-73
2023/12/19 05:30:43;;;;;;;;;;;;;;;21.83;24.02;98877.56;4998619;28;1791;-73
2023/12/19 05:33:09;;;;;;;;;;;;;;;21.91;23.63;98877.44;4982683;28;1768;-74
2023/12/19 05:35:35;;;;;;;;;;;;;;;21.90;23.99;98881.50;4998638;28;1170;-74
2023/12/19 05:38:01;;;;;;;;;;;;;;;21.84;24.15;98884.03;4982389;28;1918;-73
2023/12/19 05:40:26;;;;;;;;;;;;;;;21.65;24.20;98887.50;4974918;28;1018;-74
2023/12/19 05:42:56;;;;;;;;;;;;;;;21.93;24.06;98883.50;4959696;28;1084;-73
2023/12/19 05:45:21;;;;;;;;;;;;;;;21.78;23.77;98891.38;4944306;28;2359;-73
2023/12/19 05:47:48;;;;;;;;;;;;;;;21.47;24.26;98884.91;4950452;28;1450;-74
2023/12/19 05:50:13;;;;;;;;;;;;;;;21.60;24.27;98888.78;4942774;29;1533;-74
2023/12/19 05:52:39;;;;;;;;;;;;;;;21.79;23.79;98887.31;4938273;28;1165;-74
2023/12/19 05:55:04;;;;;;;;;;;;;;;21.82;23.87;98890.13;4995091;28;1543;-73
2023/12/19 05:57:30;;;;;;;;;;;;;;;21.75;24.11;98897.91;4920039;29;1911;-74
2023/12/19 05:59:55;;;;;;;;;;;;;;;21.81;24.09;98902.69;4944595;29;1780;-74
2023/12/19 06:02:21;;;;;;;;;;;;;;;21.98;23.83;98903.66;4937145;29;1070;-73
2023/12/19 06:04:47;;;;;;;;;;;;;;;21.89;23.96;98899.75;4936822;29;1609;-73
2023/12/19 06:07:13;;;;;;;;;;;;;;;22.04;23.65;98881.31;4904706;29;1031;-73
2023/12/19 06:09:38;;;;;;;;;;;;;;;22.03;23.67;98885.38;4937059;29;993;-73
2023/12/19 06:12:06;;;;;;;;;;;;;;;21.89;23.87;98880.72;4966469;28;1241;-73
2023/12/19 06:14:32;;;;;;;;;;;;;;;22.24;23.53;98887.94;4943425;28;1155;-74
2023/12/19 06:16:57;;;;;;;;;;;;;;;21.81;23.96;98885.69;4967122;28;1918;-73
2023/12/19 06:19:23;;;;;;;;;;;;;;;21.73;24.04;98897.53;4960885;28;1723;-74
2023/12/19 06:21:48;;;;;;;;;;;;;;;21.67;23.96;98885.88;4975341;28;1715;-74
2023/12/19 06:24:14;;;;;;;;;;;;;;;21.54;24.29;98898.97;4920727;29;1330;-74
2023/12/19 06:26:40;;;;;;;;;;;;;;;21.81;24.21;98902.69;4902066;29;1393;-73
2023/12/19 06:29:06;;;;;;;;;;;;;;;21.92;23.72;98891.19;4930909;29;1193;-73
2023/12/19 06:31:31;;;;;;;;;;;;;;;21.88;23.97;98900.97;4955685;29;1430;-74
2023/12/19 06:33:57;;;;;;;;;;;;;;;21.72;24.12;98885.41;4923657;29;1478;-74
2023/12/19 06:36:29;;;;;;;;;;;;;;;21.91;23.78;98888.78;4917577;29;1920;-73
2023/12/19 06:38:55;;;;;;;;;;;;;;;22.09;23.68;98895.00;4917728;29;1062;-74
2023/12/19 06:41:20;;;;;;;;;;;;;;;22.06;23.58;98890.19;4919359;29;1431;-74
2023/12/19 06:43:46;;;;;;;;;;;;;;;22.12;23.50;98899.84;4936210;29;1548;-73
2023/12/19 06:46:15;;;;;;;;;;;;;;;21.73;24.13;98892.66;4921484;29;1194;-74
2023/12/19 06:48:41;;;;;;;;;;;;;;;21.70;24.09;98899.16;4939539;29;988;-73
2023/12/19 06:51:07;;;;;;;;;;;;;;;21.63;24.20;98906.97;4954966;28;1594;-74
2023/12/19 06:53:32;;;;;;;;;;;;;;;21.88;24.12;98904.63;4943474;29;982;-73
2023/12/19 06:55:58;;;;;;;;;;;;;;;21.89;24.04;98908.25;4975155;28;1671;-74
2023/12/19 06:58:23;;;;;;;;;;;;;;;21.96;24.10;98910.97;5014679;28;1907;-73
2023/12/19 07:00:49;;;;;;;;;;;;;;;22.09;23.81;98912.00;5019991;28;1226;-73
2023/12/19 07:03:14;;;;;;;;;;;;;;;21.92;24.07;98921.56;5002369;28;899;-73
2023/12/19 07:05:40;;;;;;;;;;;;;;;22.20;23.62;98918.34;5018656;28;976;-73
2023/12/19 07:08:05;;;;;;;;;;;;;;;21.65;24.39;98916.63;5019122;28;931;-73
2023/12/19 07:10:31;;;;;;;;;;;;;;;21.56;24.40;98910.69;4999166;28;1511;-74
2023/12/19 07:12:58;;;;;;;;;;;;;;;21.73;24.22;98911.69;5019788;28;1689;-74
2023/12/19 07:15:23;;;;;;;;;;;;;;;21.82;24.35;98909.94;5019538;28;966;-74
2023/12/19 07:17:49;;;;;;;;;;;;;;;21.79;24.10;98922.13;5035235;28;1902;-74
2023/12/19 07:20:15;;;;;;;;;;;;;;;21.85;24.04;98913.94;5018389;28;1028;-74
2023/12/19 07:22:40;;;;;;;;;;;;;;;21.94;23.84;98910.59;5019290;28;1542;-74
2023/12/19 07:25:06;;;;;;;;;;;;;;;21.58;24.68;98911.84;5001278;28;1861;-74
2023/12/19 07:27:34;;;;;;;;;;;;;;;21.94;23.99;98921.94;5002283;28;1749;-73
2023/12/19 07:29:59;;;;;;;;;;;;;;;21.75;24.42;98927.03;5018486;28;1111;-74
2023/12/19 07:32:25;;;;;;;;;;;;;;;22.04;24.21;98923.81;5017492;28;1419;-73
2023/12/19 07:34:50;;;;;;;;;;;;;;;21.90;24.16;98924.00;5019469;28;951;-74
2023/12/19 07:37:16;;;;;;;;;;;;;;;21.53;24.52;98920.03;5000187;28;1969;-74
2023/12/19 07:39:41;;;;;;;;;;;;;;;21.43;24.81;98929.44;4984895;28;1161;-74
2023/12/19 07:42:07;;;;;;;;;;;;;;;21.74;24.36;98924.63;4984505;28;1203;-74
2023/12/19 07:44:33;;;;;;;;;;;;;;;21.71;24.43;98920.63;5017269;28;958;-73
2023/12/19 07:46:58;;;;;;;;;;;;;;;21.98;24.10;98922.69;4998731;28;1391;-73
2023/12/19 07:49:24;;;;;;;;;;;;;;;21.94;24.28;98919.09;5016823;28;984;-73
2023/12/19 07:51:50;;;;;;;;;;;;;;;21.81;24.46;98919.69;5015311;28;1662;-73
2023/12/19 07:54:16;;;;;;;;;;;;;;;21.89;24.21;98916.75;5000489;28;1811;-74
2023/12/19 07:56:42;;;;;;;;;;;;;;;21.73;24.35;98918.16;5000631;28;1898;-73
2023/12/19 07:59:09;;;;;;;;;;;;;;;21.41;25.06;98917.75;5016651;28;1644;-74
2023/12/19 08:01:34;;;;;;;;;;;;;;;21.70;24.59;98921.03;5018167;28;1022;-73
2023/12/19 08:04:00;;;;;;;;;;;;;;;21.92;24.40;98924.41;5015582;28;1025;-73
2023/12/19 08:06:26;;;;;;;;;;;;;;;21.94;24.37;98917.06;5017310;28;985;-74
2023/12/19 08:08:52;;;;;;;;;;;;;;;21.78;24.60;98914.84;5016471;28;1006;-75
2023/12/19 08:11:18;;;;;;;;;;;;;;;21.59;24.84;98912.66;5016630;28;935;-74
2023/12/19 08:13:44;;;;;;;;;;;;;;;21.58;25.00;98905.41;4999910;28;1019;-73
2023/12/19 08:16:09;;;;;;;;;;;;;;;21.84;24.67;98896.16;4999733;28;1971;-73
2023/12/19 08:18:36;;;;;;;;;;;;;;;21.16;25.58;98901.00;5000227;28;1017;-73
2023/12/19 08:21:04;;;;;;;;;;;;;;;20.68;26.20;98904.69;4999992;28;1017;-73
2023/12/19 08:23:30;;;;;;;;;;;;;;;20.58;26.54;98906.38;4999872;28;970;-73
2023/12/19 08:25:55;;;;;;;;;;;;;;;20.62;27.06;98904.31;5002498;28;1072;-73
2023/12/19 08:28:21;;;;;;;;;;;;;;;20.96;26.33;98897.97;5035864;28;1048;-73
2023/12/19 08:30:46;;;;;;;;;;;;;;;21.12;26.30;98894.56;5018794;28;1828;-73
2023/12/19 08:33:12;;;;;;;;;;;;;;;21.03;26.21;98893.03;5003089;28;1306;-73
2023/12/19 08:35:38;;;;;;;;;;;;;;;20.75;26.67;98891.28;5019684;28;1283;-73
2023/12/19 08:38:03;;;;;;;;;;;;;;;20.76;26.61;98892.06;5035711;28;1985;-73
2023/12/19 08:40:29;;;;;;;;;;;;;;;20.84;26.62;98895.66;5038050;28;979;-73
2023/12/19 08:42:54;;;;;;;;;;;;;;;20.72;26.52;98883.63;5015183;28;1669;-73
2023/12/19 08:45:22;;;;;;;;;;;;;;;20.91;26.68;98889.94;5015817;28;1045;-76
2023/12/19 08:47:48;;;;;;;;;;;;;;;21.66;25.27;98889.94;5015277;28;1083;-73
2023/12/19 08:50:15;;;;;;;;;;;;;;;21.45;25.72;98878.84;4999691;28;958;-73
2023/12/19 08:52:42;;;;;;;;;;;;;;;21.11;25.97;98876.78;4999959;28;1022;-73
2023/12/19 08:55:08;;;;;;;;;;;;;;;21.41;25.62;98875.28;5015793;28;975;-73
2023/12/19 08:57:40;;;;;;;;;;;;;;;22.18;24.68;98869.81;5004602;28;1919;-73
2023/12/19 09:00:06;;;;;;;;;;;;;;;22.61;24.15;98860.59;5019010;28;1225;-73
2023/12/19 09:02:31;;;;;;;;;;;;;;;22.87;23.62;98859.72;5018951;28;1198;-73
2023/12/19 09:04:57;;;;;;;;;;;;;;;22.74;23.73;98855.94;5018707;28;972;-73
2023/12/19 09:07:23;;;;;;;;;;;;;;;22.33;23.90;98845.66;5035164;28;1013;-73
2023/12/19 09:09:48;;;;;;;;;;;;;;;22.24;24.35;98839.75;4995536;28;1023;-73
2023/12/19 09:12:14;;;;;;;;;;;;;;;22.18;24.23;98835.78;4975638;28;1778;-73
2023/12/19 09:14:39;;;;;;;;;;;;;;;21.92;24.93;98830.91;4960504;28;1052;-73
2023/12/19 09:17:05;;;;;;;;;;;;;;;22.41;23.95;98837.03;4956835;29;1914;-73
2023/12/19 09:19:34;;;;;;;;;;;;;;;22.52;23.97;98829.94;4956728;29;1259;-73
2023/12/19 09:22:00;;;;;;;;;;;;;;;22.62;23.91;98819.66;4956852;29;928;-73
2023/12/19 09:24:30;;;;;;;;;;;;;;;22.73;23.73;98823.09;4963778;28;999;-73
2023/12/19 09:26:58;;;;;;;;;;;;;;;22.67;23.73;98826.88;5005434;28;1259;-73
2023/12/19 09:29:25;;;;;;;;;;;;;;;22.03;24.47;98823.03;4997364;28;1929;-73
2023/12/19 09:31:51;;;;;;;;;;;;;;;21.98;24.63;98815.81;4998840;28;979;-73
2023/12/19 09:34:17;;;;;;;;;;;;;;;22.28;24.04;98812.13;5015308;28;934;-73
2023/12/19 09:36:44;;;;;;;;;;;;;;;22.58;23.91;98814.03;4998711;28;1898;-73
2023/12/19 09:39:10;;;;;;;;;;;;;;;22.65;23.83;98807.44;4982625;28;996;-73
2023/12/19 09:41:37;;;;;;;;;;;;;;;22.71;23.60;98811.38;5029234;28;1006;-73
2023/12/19 09:44:02;;;;;;;;;;;;;;;22.74;23.69;98804.84;5015676;28;1659;-73
2023/12/19 09:46:33;;;;;;;;;;;;;;;22.34;24.10;98801.09;5035379;28;1033;-73
2023/12/19 09:48:58;;;;;;;;;;;;;;;22.00;24.40;98790.69;5036780;28;902;-73
2023/12/19 09:51:28;;;;;;;;;;;;;;;22.06;24.51;98788.97;5034331;28;1032;-73
2023/12/19 09:53:55;;;;;;;;;;;;;;;22.65;23.94;98783.97;5001344;28;990;-73
2023/12/19 09:56:20;;;;;;;;;;;;;;;22.67;23.90;98785.09;5020598;28;1932;-73
2023/12/19 09:58:48;;;;;;;;;;;;;;;22.63;24.01;98792.88;5037038;28;1934;-73
2023/12/19 10:01:13;;;;;;;;;;;;;;;22.76;23.73;98782.50;5019917;28;1668;-73
2023/12/19 10:03:39;;;;;;;;;;;;;;;22.94;23.30;98778.56;5037938;28;1004;-73
2023/12/19 10:06:06;;;;;;;;;;;;;;;22.43;23.77;98777.84;5037703;28;1521;-73
2023/12/19 10:08:33;;;;;;;;;;;;;;;22.19;24.12;98775.03;5021492;28;952;-73
2023/12/19 10:10:58;;;;;;;;;;;;;;;21.91;24.58;98764.09;5037271;28;894;-73
2023/12/19 10:13:27;;;;;;;;;;;;;;;22.23;24.36;98764.44;5037743;28;954;-73
2023/12/19 10:16:06;;;;;;;;;;;;;;;22.66;23.74;98769.31;5037357;28;930;-73
2023/12/19 10:18:31;;;;;;;;;;;;;;;22.56;23.99;98758.97;5036343;28;2102;-73
2023/12/19 10:21:08;;;;;;;;;;;;;;;22.85;23.67;98765.72;5020869;28;1147;-73
2023/12/19 10:23:37;;;;;;;;;;;;;;;22.92;23.40;98752.66;5022052;28;980;-73
2023/12/19 10:26:03;;;;;;;;;;;;;;;22.92;23.30;98746.97;5038162;28;964;-73
2023/12/19 10:28:30;;;;;;;;;;;;;;;22.59;23.51;98741.13;5038461;28;966;-73
2023/12/19 10:31:16;;;;;;;;;;;;;;;21.64;24.69;98739.44;5021455;28;1900;-73
2023/12/19 10:33:51;;;;;;;;;;;;;;;22.21;24.18;98749.88;5055375;28;1080;-73
2023/12/19 10:36:25;;;;;;;;;;;;;;;22.57;24.09;98743.56;5033647;28;1914;-73
2023/12/19 10:38:51;;;;;;;;;;;;;;;22.58;23.78;98733.81;5033731;28;1066;-73
2023/12/19 10:41:23;;;;;;;;;;;;;;;22.80;23.32;98731.38;5034009;28;1050;-73
2023/12/19 10:43:49;;;;;;;;;;;;;;;22.71;23.49;98720.59;5017454;28;1267;-73
2023/12/19 10:46:16;;;;;;;;;;;;;;;22.84;23.66;98724.38;5032717;28;1718;-73
2023/12/19 10:48:41;;;;;;;;;;;;;;;22.71;23.70;98720.59;5033729;28;1010;-73
2023/12/19 10:51:07;;;;;;;;;;;;;;;22.25;24.27;98718.63;5000879;28;1152;-73
2023/12/19 10:53:32;;;;;;;;;;;;;;;21.90;24.72;98711.50;5034062;28;1084;-73
2023/12/19 10:55:58;;;;;;;;;;;;;;;22.23;24.15;98704.09;5033797;28;1062;-73
2023/12/19 10:58:23;;;;;;;;;;;;;;;22.55;24.10;98709.19;5017005;28;1918;-73
2023/12/19 11:00:50;;;;;;;;;;;;;;;22.73;23.67;98698.25;5000577;28;1642;-73
2023/12/19 11:03:18;;;;;;;;;;;;;;;22.63;23.91;98696.44;5033803;28;986;-73
2023/12/19 11:05:47;;;;;;;;;;;;;;;22.76;23.52;98697.41;5033308;28;1005;-73
2023/12/19 11:08:17;;;;;;;;;;;;;;;22.86;23.44;98693.53;5017552;28;1157;-73
2023/12/19 11:10:45;;;;;;;;;;;;;;;22.62;23.68;98689.16;5017461;28;975;-73
2023/12/19 11:13:11;;;;;;;;;;;;;;;22.07;24.34;98682.06;5017115;28;932;-73
2023/12/19 11:15:38;;;;;;;;;;;;;;;22.16;24.23;98690.84;5016680;28;1920;-73
2023/12/19 11:18:26;;;;;;;;;;;;;;;22.26;24.16;98689.84;5034413;28;1898;-73
2023/12/19 11:21:01;;;;;;;;;;;;;;;22.45;23.90;98678.97;5056248;28;883;-73
2023/12/19 11:23:35;;;;;;;;;;;;;;;22.70;23.60;98678.50;4996616;28;1684;-73
2023/12/19 11:26:19;;;;;;;;;;;;;;;22.83;23.65;98671.69;4997375;28;1053;-73
2023/12/19 11:28:45;;;;;;;;;;;;;;;22.94;23.52;98670.72;4997217;28;1004;-73
2023/12/19 11:31:30;;;;;;;;;;;;;;;22.92;23.39;98674.00;4997651;28;1223;-73
2023/12/19 11:33:58;;;;;;;;;;;;;;;22.39;23.93;98675.06;5013564;28;1025;-73
2023/12/19 11:36:23;;;;;;;;;;;;;;;22.12;24.33;98673.09;4996787;28;1983;-74
2023/12/19 11:38:49;;;;;;;;;;;;;;;22.08;24.37;98661.00;5000693;28;1052;-73
2023/12/19 11:41:33;;;;;;;;;;;;;;;22.49;24.09;98668.38;5000715;28;950;-73
2023/12/19 11:44:00;;;;;;;;;;;;;;;22.82;23.67;98652.28;5017143;28;1317;-73
2023/12/19 11:46:26;;;;;;;;;;;;;;;22.87;23.36;98661.09;5016161;28;1961;-73
2023/12/19 11:48:52;;;;;;;;;;;;;;;22.56;23.78;98651.22;5017303;28;1028;-74
2023/12/19 11:51:36;;;;;;;;;;;;;;;22.84;23.50;98647.75;4968108;28;990;-73
2023/12/19 11:54:01;;;;;;;;;;;;;;;22.71;23.50;98641.16;5030247;28;920;-73
2023/12/19 11:56:27;;;;;;;;;;;;;;;22.51;24.05;98648.88;5040863;28;1894;-73
2023/12/19 11:58:52;;;;;;;;;;;;;;;21.97;24.62;98649.06;5058675;28;933;-73
2023/12/19 12:01:19;;;;;;;;;;;;;;;21.87;24.93;98644.41;5023737;28;1913;-73
2023/12/19 12:03:44;;;;;;;;;;;;;;;22.50;24.22;98641.63;5057927;28;1991;-73
2023/12/19 12:06:10;;;;;;;;;;;;;;;22.73;23.82;98637.88;5040980;28;1018;-73
2023/12/19 12:08:35;;;;;;;;;;;;;;;22.84;23.64;98633.56;5041343;28;896;-74
2023/12/19 12:11:04;;;;;;;;;;;;;;;22.61;23.70;98642.19;5024701;28;1558;-73
2023/12/19 12:13:31;;;;;;;;;;;;;;;22.65;23.65;98647.81;5024241;28;1150;-73
2023/12/19 12:15:56;;;;;;;;;;;;;;;22.12;24.24;98635.44;5019998;28;1891;-73
2023/12/19 12:18:22;;;;;;;;;;;;;;;22.16;24.56;98637.00;5037145;28;1922;-73
2023/12/19 12:20:47;;;;;;;;;;;;;;;22.15;24.45;98637.44;5037198;28;928;-73
2023/12/19 12:23:16;;;;;;;;;;;;;;;22.31;24.46;98640.34;5038320;28;1004;-73
2023/12/19 12:25:42;;;;;;;;;;;;;;;22.54;23.99;98636.69;5037144;28;1005;-73
2023/12/19 12:28:07;;;;;;;;;;;;;;;22.74;23.74;98631.78;5038350;28;940;-73
2023/12/19 12:30:33;;;;;;;;;;;;;;;22.88;23.63;98630.69;5045570;28;1766;-73
2023/12/19 12:32:59;;;;;;;;;;;;;;;22.95;23.60;98632.56;5058336;28;1168;-73
2023/12/19 12:35:30;;;;;;;;;;;;;;;22.86;23.57;98633.94;5024088;28;903;-73
2023/12/19 12:38:00;;;;;;;;;;;;;;;22.96;23.56;98628.53;5040368;28;1979;-73
2023/12/19 12:40:26;;;;;;;;;;;;;;;22.47;23.83;98629.09;5040309;28;911;-73
2023/12/19 12:42:52;;;;;;;;;;;;;;;22.15;24.26;98621.22;5040414;28;911;-73
2023/12/19 12:45:17;;;;;;;;;;;;;;;22.05;24.39;98616.53;5057196;28;1643;-74
2023/12/19 12:47:43;;;;;;;;;;;;;;;22.22;24.63;98621.06;5040242;28;1231;-73
2023/12/19 12:50:08;;;;;;;;;;;;;;;22.60;23.85;98629.25;5057021;28;1046;-73
2023/12/19 12:52:34;;;;;;;;;;;;;;;22.61;24.02;98619.50;5023615;28;1094;-73
2023/12/19 12:55:00;;;;;;;;;;;;;;;22.97;23.33;98610.25;5024024;28;1148;-73
2023/12/19 12:57:26;;;;;;;;;;;;;;;22.94;23.55;98620.44;5023362;28;1910;-73